sensor_id;sensor_type;location;lat;lon;timestamp;temperature;humidity
19868;DHT22;10096;51.112;6.776;2022-07-10T00:00:17;16.70;99.90
19868;DHT22;10096;51.112;6.776;2022-07-10T00:02:48;16.50;99.90
19868;DHT22;10096;51.112;6.776;2022-07-10T00:05:15;16.70;99.90
19868;DHT22;10096;51.112;6.776;2022-07-10T00:07:42;16.40;99.90
19868;DHT22;10096;51.112;6.776;2022-07-10T00:10:09;16.40;99.90
19868;DHT22;10096;51.112;6.776;2022-07-10T00:12:36;16.40;99.90
19868;DHT22;10096;51.112;6.776;2022-07-10T00:15:04;16.50;1.00
19868;DHT22;10096;51.112;6.776;2022-07-10T00:17:31;16.50;99.90
19868;DHT22;10096;51.112;6.776;2022-07-10T00:20:01;16.70;99.90
19868;DHT22;10096;51.112;6.776;2022-07-10T00:22:27;16.50;99.90
19868;DHT22;10096;51.112;6.776;2022-07-10T00:24:54;16.50;99.90
19868;DHT22;10096;51.112;6.776;2022-07-10T00:27:22;16.50;99.90
19868;DHT22;10096;51.112;6.776;2022-07-10T00:29:49;16.50;99.90
19868;DHT22;10096;51.112;6.776;2022-07-10T00:32:15;16.50;99.90
19868;DHT22;10096;51.112;6.776;2022-07-10T00:34:42;16.70;99.90
19868;DHT22;10096;51.112;6.776;2022-07-10T00:37:11;16.60;1.00
19868;DHT22;10096;51.112;6.776;2022-07-10T00:39:37;16.50;99.90
19868;DHT22;10096;51.112;6.776;2022-07-10T00:42:08;16.40;1.00
19868;DHT22;10096;51.112;6.776;2022-07-10T00:44:36;16.40;99.90
19868;DHT22;10096;51.112;6.776;2022-07-10T00:47:03;16.40;1.00
19868;DHT22;10096;51.112;6.776;2022-07-10T00:49:30;16.40;1.00
19868;DHT22;10096;51.112;6.776;2022-07-10T00:51:58;16.40;1.00
19868;DHT22;10096;51.112;6.776;2022-07-10T00:54:28;16.80;99.90
19868;DHT22;10096;51.112;6.776;2022-07-10T00:56:56;16.60;99.90
19868;DHT22;10096;51.112;6.776;2022-07-10T00:59:24;16.70;99.90
19868;DHT22;10096;51.112;6.776;2022-07-10T01:01:52;16.80;99.90
19868;DHT22;10096;51.112;6.776;2022-07-10T01:04:19;16.80;99.90
19868;DHT22;10096;51.112;6.776;2022-07-10T01:06:46;16.90;99.90
19868;DHT22;10096;51.112;6.776;2022-07-10T01:09:13;16.90;99.90
19868;DHT22;10096;51.112;6.776;2022-07-10T01:11:42;17.00;99.90
19868;DHT22;10096;51.112;6.776;2022-07-10T01:14:09;17.00;99.90
19868;DHT22;10096;51.112;6.776;2022-07-10T01:16:38;17.20;99.90
19868;DHT22;10096;51.112;6.776;2022-07-10T01:19:05;17.00;99.90
19868;DHT22;10096;51.112;6.776;2022-07-10T01:21:35;17.10;99.90
19868;DHT22;10096;51.112;6.776;2022-07-10T01:24:04;17.10;99.90
19868;DHT22;10096;51.112;6.776;2022-07-10T01:26:32;16.90;99.90
19868;DHT22;10096;51.112;6.776;2022-07-10T01:29:02;16.90;99.90
19868;DHT22;10096;51.112;6.776;2022-07-10T01:31:30;16.80;99.90
19868;DHT22;10096;51.112;6.776;2022-07-10T01:34:00;16.90;99.90
19868;DHT22;10096;51.112;6.776;2022-07-10T01:36:28;16.90;99.90
19868;DHT22;10096;51.112;6.776;2022-07-10T01:38:57;17.10;99.90
19868;DHT22;10096;51.112;6.776;2022-07-10T01:41:24;16.80;99.90
19868;DHT22;10096;51.112;6.776;2022-07-10T01:43:52;16.90;99.90
19868;DHT22;10096;51.112;6.776;2022-07-10T01:46:19;16.70;99.90
19868;DHT22;10096;51.112;6.776;2022-07-10T01:48:46;16.80;99.90
19868;DHT22;10096;51.112;6.776;2022-07-10T01:51:14;16.80;99.90
19868;DHT22;10096;51.112;6.776;2022-07-10T01:53:42;16.80;99.90
19868;DHT22;10096;51.112;6.776;2022-07-10T01:56:12;16.90;99.90
19868;DHT22;10096;51.112;6.776;2022-07-10T01:58:39;16.80;99.90
19868;DHT22;10096;51.112;6.776;2022-07-10T02:01:07;17.10;99.90
19868;DHT22;10096;51.112;6.776;2022-07-10T02:03:34;17.10;99.90
19868;DHT22;10096;51.112;6.776;2022-07-10T02:06:18;16.80;99.90
19868;DHT22;10096;51.112;6.776;2022-07-10T02:08:45;16.70;99.90
19868;DHT22;10096;51.112;6.776;2022-07-10T02:11:13;16.60;1.00
19868;DHT22;10096;51.112;6.776;2022-07-10T02:13:40;16.60;1.00
19868;DHT22;10096;51.112;6.776;2022-07-10T02:16:08;16.70;1.00
19868;DHT22;10096;51.112;6.776;2022-07-10T02:18:36;16.80;1.00
19868;DHT22;10096;51.112;6.776;2022-07-10T02:21:03;16.60;1.00
19868;DHT22;10096;51.112;6.776;2022-07-10T02:23:30;16.50;1.00
19868;DHT22;10096;51.112;6.776;2022-07-10T02:25:57;16.50;1.00
19868;DHT22;10096;51.112;6.776;2022-07-10T02:28:25;16.50;1.00
19868;DHT22;10096;51.112;6.776;2022-07-10T02:30:52;16.50;1.00
19868;DHT22;10096;51.112;6.776;2022-07-10T02:33:19;16.20;1.00
19868;DHT22;10096;51.112;6.776;2022-07-10T02:35:45;16.40;1.00
19868;DHT22;10096;51.112;6.776;2022-07-10T02:38:12;16.10;1.00
19868;DHT22;10096;51.112;6.776;2022-07-10T02:40:39;16.30;1.00
19868;DHT22;10096;51.112;6.776;2022-07-10T02:43:06;16.20;1.00
19868;DHT22;10096;51.112;6.776;2022-07-10T02:45:35;16.10;1.00
19868;DHT22;10096;51.112;6.776;2022-07-10T02:48:02;16.00;1.00
19868;DHT22;10096;51.112;6.776;2022-07-10T02:50:29;16.10;1.00
19868;DHT22;10096;51.112;6.776;2022-07-10T02:52:56;16.20;1.00
19868;DHT22;10096;51.112;6.776;2022-07-10T02:55:23;16.10;1.00
19868;DHT22;10096;51.112;6.776;2022-07-10T02:57:50;16.20;1.00
19868;DHT22;10096;51.112;6.776;2022-07-10T03:00:16;16.30;1.00
19868;DHT22;10096;51.112;6.776;2022-07-10T03:02:45;16.30;1.00
19868;DHT22;10096;51.112;6.776;2022-07-10T03:05:12;16.40;1.00
19868;DHT22;10096;51.112;6.776;2022-07-10T03:07:39;16.40;1.00
19868;DHT22;10096;51.112;6.776;2022-07-10T03:10:06;16.40;1.00
19868;DHT22;10096;51.112;6.776;2022-07-10T03:12:34;16.20;1.00
19868;DHT22;10096;51.112;6.776;2022-07-10T03:15:02;16.20;1.00
19868;DHT22;10096;51.112;6.776;2022-07-10T03:17:29;16.20;1.00
19868;DHT22;10096;51.112;6.776;2022-07-10T03:19:57;16.20;1.00
19868;DHT22;10096;51.112;6.776;2022-07-10T03:22:24;16.20;1.00
19868;DHT22;10096;51.112;6.776;2022-07-10T03:24:52;16.20;1.00
19868;DHT22;10096;51.112;6.776;2022-07-10T03:27:20;16.20;1.00
19868;DHT22;10096;51.112;6.776;2022-07-10T03:29:48;16.20;1.00
19868;DHT22;10096;51.112;6.776;2022-07-10T03:32:15;16.20;1.00
19868;DHT22;10096;51.112;6.776;2022-07-10T03:34:42;16.30;1.00
19868;DHT22;10096;51.112;6.776;2022-07-10T03:37:10;16.20;1.00
19868;DHT22;10096;51.112;6.776;2022-07-10T03:39:37;16.50;1.00
19868;DHT22;10096;51.112;6.776;2022-07-10T03:42:05;16.40;1.00
19868;DHT22;10096;51.112;6.776;2022-07-10T03:44:32;16.20;1.00
19868;DHT22;10096;51.112;6.776;2022-07-10T03:46:59;16.20;1.00
19868;DHT22;10096;51.112;6.776;2022-07-10T03:49:26;16.20;1.00
19868;DHT22;10096;51.112;6.776;2022-07-10T03:51:54;16.10;1.00
19868;DHT22;10096;51.112;6.776;2022-07-10T03:54:26;16.10;1.00
19868;DHT22;10096;51.112;6.776;2022-07-10T03:56:53;16.20;1.00
19868;DHT22;10096;51.112;6.776;2022-07-10T03:59:37;16.10;1.00
19868;DHT22;10096;51.112;6.776;2022-07-10T04:02:04;16.10;1.00
19868;DHT22;10096;51.112;6.776;2022-07-10T04:04:31;16.20;1.00
19868;DHT22;10096;51.112;6.776;2022-07-10T04:06:58;16.50;1.00
19868;DHT22;10096;51.112;6.776;2022-07-10T04:09:26;16.90;1.00
19868;DHT22;10096;51.112;6.776;2022-07-10T04:11:53;17.60;1.00
19868;DHT22;10096;51.112;6.776;2022-07-10T04:14:20;18.30;99.90
19868;DHT22;10096;51.112;6.776;2022-07-10T04:16:47;19.00;99.90
19868;DHT22;10096;51.112;6.776;2022-07-10T04:19:15;19.90;99.90
19868;DHT22;10096;51.112;6.776;2022-07-10T04:21:43;20.40;99.90
19868;DHT22;10096;51.112;6.776;2022-07-10T04:24:10;20.60;99.90
19868;DHT22;10096;51.112;6.776;2022-07-10T04:26:39;21.20;99.90
19868;DHT22;10096;51.112;6.776;2022-07-10T04:29:06;21.60;99.90
19868;DHT22;10096;51.112;6.776;2022-07-10T04:32:05;22.00;99.90
19868;DHT22;10096;51.112;6.776;2022-07-10T04:34:25;22.70;99.90
19868;DHT22;10096;51.112;6.776;2022-07-10T04:36:52;23.20;99.90
19868;DHT22;10096;51.112;6.776;2022-07-10T04:39:19;23.70;99.90
19868;DHT22;10096;51.112;6.776;2022-07-10T04:41:48;23.80;99.90
19868;DHT22;10096;51.112;6.776;2022-07-10T04:44:15;24.10;99.90
19868;DHT22;10096;51.112;6.776;2022-07-10T04:46:42;24.30;99.90
19868;DHT22;10096;51.112;6.776;2022-07-10T04:49:09;24.70;99.90
19868;DHT22;10096;51.112;6.776;2022-07-10T04:51:36;25.10;99.90
19868;DHT22;10096;51.112;6.776;2022-07-10T04:54:03;25.30;99.90
19868;DHT22;10096;51.112;6.776;2022-07-10T04:56:30;25.60;99.90
19868;DHT22;10096;51.112;6.776;2022-07-10T04:58:58;25.90;99.90
19868;DHT22;10096;51.112;6.776;2022-07-10T05:01:25;26.30;99.90
19868;DHT22;10096;51.112;6.776;2022-07-10T05:03:52;26.60;99.90
19868;DHT22;10096;51.112;6.776;2022-07-10T05:06:19;26.60;99.90
19868;DHT22;10096;51.112;6.776;2022-07-10T05:08:46;27.20;99.90
19868;DHT22;10096;51.112;6.776;2022-07-10T05:11:13;27.70;99.90
19868;DHT22;10096;51.112;6.776;2022-07-10T05:13:40;27.50;99.90
19868;DHT22;10096;51.112;6.776;2022-07-10T05:16:12;27.90;99.90
19868;DHT22;10096;51.112;6.776;2022-07-10T05:18:39;28.20;99.90
19868;DHT22;10096;51.112;6.776;2022-07-10T05:21:07;28.30;99.90
19868;DHT22;10096;51.112;6.776;2022-07-10T05:23:36;28.60;99.90
19868;DHT22;10096;51.112;6.776;2022-07-10T05:26:03;28.50;99.90
19868;DHT22;10096;51.112;6.776;2022-07-10T05:28:31;28.60;99.90
19868;DHT22;10096;51.112;6.776;2022-07-10T05:30:58;28.80;99.90
19868;DHT22;10096;51.112;6.776;2022-07-10T05:33:27;29.10;99.90
19868;DHT22;10096;51.112;6.776;2022-07-10T05:35:54;29.10;99.90
19868;DHT22;10096;51.112;6.776;2022-07-10T05:38:21;29.30;99.90
19868;DHT22;10096;51.112;6.776;2022-07-10T05:40:48;29.60;99.90
19868;DHT22;10096;51.112;6.776;2022-07-10T05:43:16;29.80;99.90
19868;DHT22;10096;51.112;6.776;2022-07-10T05:45:43;29.20;99.90
19868;DHT22;10096;51.112;6.776;2022-07-10T05:48:10;28.50;99.90
19868;DHT22;10096;51.112;6.776;2022-07-10T05:50:38;27.40;99.90
19868;DHT22;10096;51.112;6.776;2022-07-10T05:53:05;26.00;99.90
19868;DHT22;10096;51.112;6.776;2022-07-10T05:55:52;25.30;99.90
19868;DHT22;10096;51.112;6.776;2022-07-10T05:58:21;24.40;99.90
19868;DHT22;10096;51.112;6.776;2022-07-10T06:00:48;24.00;99.90
19868;DHT22;10096;51.112;6.776;2022-07-10T06:03:16;23.20;99.90
19868;DHT22;10096;51.112;6.776;2022-07-10T06:05:55;23.00;99.90
19868;DHT22;10096;51.112;6.776;2022-07-10T06:08:23;22.80;99.90
19868;DHT22;10096;51.112;6.776;2022-07-10T06:11:03;22.80;99.90
19868;DHT22;10096;51.112;6.776;2022-07-10T06:13:41;22.80;99.90
19868;DHT22;10096;51.112;6.776;2022-07-10T06:16:08;23.40;99.90
19868;DHT22;10096;51.112;6.776;2022-07-10T06:18:35;24.40;99.90
19868;DHT22;10096;51.112;6.776;2022-07-10T06:21:02;24.40;99.90
19868;DHT22;10096;51.112;6.776;2022-07-10T06:23:30;25.30;99.90
19868;DHT22;10096;51.112;6.776;2022-07-10T06:26:00;24.70;99.90
19868;DHT22;10096;51.112;6.776;2022-07-10T06:28:28;23.80;99.90
19868;DHT22;10096;51.112;6.776;2022-07-10T06:30:55;22.80;99.90
19868;DHT22;10096;51.112;6.776;2022-07-10T06:33:21;22.10;99.90
19868;DHT22;10096;51.112;6.776;2022-07-10T06:35:49;21.70;99.90
19868;DHT22;10096;51.112;6.776;2022-07-10T06:38:16;21.60;99.90
19868;DHT22;10096;51.112;6.776;2022-07-10T06:40:44;21.10;99.90
19868;DHT22;10096;51.112;6.776;2022-07-10T06:43:14;20.90;99.90
19868;DHT22;10096;51.112;6.776;2022-07-10T06:45:41;20.80;99.90
19868;DHT22;10096;51.112;6.776;2022-07-10T06:48:08;20.60;99.90
19868;DHT22;10096;51.112;6.776;2022-07-10T06:50:40;20.10;99.90
19868;DHT22;10096;51.112;6.776;2022-07-10T06:53:09;20.10;99.90
19868;DHT22;10096;51.112;6.776;2022-07-10T06:55:36;20.20;99.90
19868;DHT22;10096;51.112;6.776;2022-07-10T06:58:04;20.20;99.90
19868;DHT22;10096;51.112;6.776;2022-07-10T07:00:33;20.20;99.90
19868;DHT22;10096;51.112;6.776;2022-07-10T07:03:00;20.20;99.90
19868;DHT22;10096;51.112;6.776;2022-07-10T07:05:27;20.20;99.90
19868;DHT22;10096;51.112;6.776;2022-07-10T07:07:56;20.10;99.90
19868;DHT22;10096;51.112;6.776;2022-07-10T07:10:23;20.10;99.90
19868;DHT22;10096;51.112;6.776;2022-07-10T07:12:51;20.10;99.90
19868;DHT22;10096;51.112;6.776;2022-07-10T07:15:18;19.90;99.90
19868;DHT22;10096;51.112;6.776;2022-07-10T07:17:50;19.60;99.90
19868;DHT22;10096;51.112;6.776;2022-07-10T07:20:33;19.60;99.90
19868;DHT22;10096;51.112;6.776;2022-07-10T07:23:18;19.70;99.90
19868;DHT22;10096;51.112;6.776;2022-07-10T07:25:45;19.70;99.90
19868;DHT22;10096;51.112;6.776;2022-07-10T07:28:13;19.80;99.90
19868;DHT22;10096;51.112;6.776;2022-07-10T07:30:43;19.90;99.90
19868;DHT22;10096;51.112;6.776;2022-07-10T07:33:11;20.00;99.90
19868;DHT22;10096;51.112;6.776;2022-07-10T07:35:38;20.00;99.90
19868;DHT22;10096;51.112;6.776;2022-07-10T07:38:05;19.90;99.90
19868;DHT22;10096;51.112;6.776;2022-07-10T07:40:33;19.80;99.90
19868;DHT22;10096;51.112;6.776;2022-07-10T07:43:01;20.00;99.90
19868;DHT22;10096;51.112;6.776;2022-07-10T07:45:27;20.10;99.90
19868;DHT22;10096;51.112;6.776;2022-07-10T07:47:56;20.00;99.90
19868;DHT22;10096;51.112;6.776;2022-07-10T07:50:28;20.00;99.90
19868;DHT22;10096;51.112;6.776;2022-07-10T07:52:58;20.00;99.90
19868;DHT22;10096;51.112;6.776;2022-07-10T07:55:34;19.60;99.90
19868;DHT22;10096;51.112;6.776;2022-07-10T07:58:07;19.40;99.90
19868;DHT22;10096;51.112;6.776;2022-07-10T08:00:44;19.20;99.90
19868;DHT22;10096;51.112;6.776;2022-07-10T08:03:12;19.30;99.90
19868;DHT22;10096;51.112;6.776;2022-07-10T08:05:46;19.00;99.90
19868;DHT22;10096;51.112;6.776;2022-07-10T08:08:14;18.70;99.90
19868;DHT22;10096;51.112;6.776;2022-07-10T08:11:02;18.50;99.90
19868;DHT22;10096;51.112;6.776;2022-07-10T08:13:31;19.00;99.90
19868;DHT22;10096;51.112;6.776;2022-07-10T08:15:59;18.90;99.90
19868;DHT22;10096;51.112;6.776;2022-07-10T08:18:26;19.40;99.90
19868;DHT22;10096;51.112;6.776;2022-07-10T08:20:59;19.30;99.90
19868;DHT22;10096;51.112;6.776;2022-07-10T08:23:26;19.50;99.90
19868;DHT22;10096;51.112;6.776;2022-07-10T08:25:59;19.40;99.90
19868;DHT22;10096;51.112;6.776;2022-07-10T08:28:26;19.40;99.90
19868;DHT22;10096;51.112;6.776;2022-07-10T08:30:54;19.70;99.90
19868;DHT22;10096;51.112;6.776;2022-07-10T08:33:22;19.90;99.90
19868;DHT22;10096;51.112;6.776;2022-07-10T08:35:49;19.90;99.90
19868;DHT22;10096;51.112;6.776;2022-07-10T08:38:18;20.20;99.90
19868;DHT22;10096;51.112;6.776;2022-07-10T08:40:46;19.80;99.90
19868;DHT22;10096;51.112;6.776;2022-07-10T08:43:13;19.80;99.90
19868;DHT22;10096;51.112;6.776;2022-07-10T08:45:42;19.60;99.90
19868;DHT22;10096;51.112;6.776;2022-07-10T08:48:09;19.70;99.90
19868;DHT22;10096;51.112;6.776;2022-07-10T08:50:44;19.60;99.90
19868;DHT22;10096;51.112;6.776;2022-07-10T08:53:22;19.60;99.90
19868;DHT22;10096;51.112;6.776;2022-07-10T08:55:56;20.00;99.90
19868;DHT22;10096;51.112;6.776;2022-07-10T08:58:23;20.20;99.90
19868;DHT22;10096;51.112;6.776;2022-07-10T09:00:50;20.30;99.90
19868;DHT22;10096;51.112;6.776;2022-07-10T09:03:17;20.30;99.90
19868;DHT22;10096;51.112;6.776;2022-07-10T09:05:43;20.60;99.90
19868;DHT22;10096;51.112;6.776;2022-07-10T09:08:26;20.80;99.90
19868;DHT22;10096;51.112;6.776;2022-07-10T09:11:13;20.80;99.90
19868;DHT22;10096;51.112;6.776;2022-07-10T09:13:49;20.90;99.90
19868;DHT22;10096;51.112;6.776;2022-07-10T09:16:23;21.50;99.90
19868;DHT22;10096;51.112;6.776;2022-07-10T09:18:52;21.20;99.90
19868;DHT22;10096;51.112;6.776;2022-07-10T09:21:20;21.60;99.90
19868;DHT22;10096;51.112;6.776;2022-07-10T09:24:09;21.30;99.90
19868;DHT22;10096;51.112;6.776;2022-07-10T09:26:37;21.20;99.90
19868;DHT22;10096;51.112;6.776;2022-07-10T09:29:08;21.00;99.90
19868;DHT22;10096;51.112;6.776;2022-07-10T09:31:48;20.80;99.90
19868;DHT22;10096;51.112;6.776;2022-07-10T09:34:16;20.80;99.90
19868;DHT22;10096;51.112;6.776;2022-07-10T09:36:43;20.50;99.90
19868;DHT22;10096;51.112;6.776;2022-07-10T09:39:15;20.30;99.90
19868;DHT22;10096;51.112;6.776;2022-07-10T09:41:41;19.80;99.90
19868;DHT22;10096;51.112;6.776;2022-07-10T09:44:08;20.00;99.90
19868;DHT22;10096;51.112;6.776;2022-07-10T09:46:38;19.90;99.90
19868;DHT22;10096;51.112;6.776;2022-07-10T09:49:07;19.80;99.90
19868;DHT22;10096;51.112;6.776;2022-07-10T09:51:36;19.90;99.90
19868;DHT22;10096;51.112;6.776;2022-07-10T09:54:05;19.80;99.90
19868;DHT22;10096;51.112;6.776;2022-07-10T09:56:39;19.90;99.90
19868;DHT22;10096;51.112;6.776;2022-07-10T09:59:10;20.00;99.90
19868;DHT22;10096;51.112;6.776;2022-07-10T10:01:43;20.30;99.90
19868;DHT22;10096;51.112;6.776;2022-07-10T10:04:14;20.20;99.90
19868;DHT22;10096;51.112;6.776;2022-07-10T10:06:41;20.40;99.90
19868;DHT22;10096;51.112;6.776;2022-07-10T10:09:15;20.30;99.90
19868;DHT22;10096;51.112;6.776;2022-07-10T10:11:47;20.30;99.90
19868;DHT22;10096;51.112;6.776;2022-07-10T10:14:18;20.70;99.90
19868;DHT22;10096;51.112;6.776;2022-07-10T10:16:46;20.60;99.90
19868;DHT22;10096;51.112;6.776;2022-07-10T10:19:15;20.50;99.90
19868;DHT22;10096;51.112;6.776;2022-07-10T10:22:02;20.60;99.90
19868;DHT22;10096;51.112;6.776;2022-07-10T10:24:31;21.00;99.90
19868;DHT22;10096;51.112;6.776;2022-07-10T10:27:01;21.70;99.90
19868;DHT22;10096;51.112;6.776;2022-07-10T10:29:28;22.60;99.90
19868;DHT22;10096;51.112;6.776;2022-07-10T10:31:56;22.90;99.90
19868;DHT22;10096;51.112;6.776;2022-07-10T10:34:40;22.50;99.90
19868;DHT22;10096;51.112;6.776;2022-07-10T10:37:36;22.10;99.90
19868;DHT22;10096;51.112;6.776;2022-07-10T10:40:06;21.90;99.90
19868;DHT22;10096;51.112;6.776;2022-07-10T10:42:38;21.70;99.90
19868;DHT22;10096;51.112;6.776;2022-07-10T10:45:24;22.00;99.90
19868;DHT22;10096;51.112;6.776;2022-07-10T10:48:14;22.60;99.90
19868;DHT22;10096;51.112;6.776;2022-07-10T10:50:42;23.50;99.90
19868;DHT22;10096;51.112;6.776;2022-07-10T10:53:13;23.70;99.90
19868;DHT22;10096;51.112;6.776;2022-07-10T10:55:40;23.00;99.90
19868;DHT22;10096;51.112;6.776;2022-07-10T10:58:17;22.50;99.90
19868;DHT22;10096;51.112;6.776;2022-07-10T11:00:45;21.90;99.90
19868;DHT22;10096;51.112;6.776;2022-07-10T11:03:19;21.30;99.90
19868;DHT22;10096;51.112;6.776;2022-07-10T11:05:48;21.00;99.90
19868;DHT22;10096;51.112;6.776;2022-07-10T11:08:36;20.90;99.90
19868;DHT22;10096;51.112;6.776;2022-07-10T11:11:36;20.80;99.90
19868;DHT22;10096;51.112;6.776;2022-07-10T11:14:07;20.90;99.90
19868;DHT22;10096;51.112;6.776;2022-07-10T11:16:35;21.10;99.90
19868;DHT22;10096;51.112;6.776;2022-07-10T11:19:02;21.10;99.90
19868;DHT22;10096;51.112;6.776;2022-07-10T11:21:45;20.80;99.90
19868;DHT22;10096;51.112;6.776;2022-07-10T11:24:29;20.90;99.90
19868;DHT22;10096;51.112;6.776;2022-07-10T11:27:09;21.10;99.90
19868;DHT22;10096;51.112;6.776;2022-07-10T11:29:39;20.90;99.90
19868;DHT22;10096;51.112;6.776;2022-07-10T11:32:07;20.70;99.90
19868;DHT22;10096;51.112;6.776;2022-07-10T11:34:35;20.80;99.90
19868;DHT22;10096;51.112;6.776;2022-07-10T11:37:02;21.10;99.90
19868;DHT22;10096;51.112;6.776;2022-07-10T11:39:30;21.20;99.90
19868;DHT22;10096;51.112;6.776;2022-07-10T11:41:57;21.30;99.90
19868;DHT22;10096;51.112;6.776;2022-07-10T11:44:24;21.30;99.90
19868;DHT22;10096;51.112;6.776;2022-07-10T11:46:54;21.30;99.90
19868;DHT22;10096;51.112;6.776;2022-07-10T11:49:23;21.20;99.90
19868;DHT22;10096;51.112;6.776;2022-07-10T11:51:50;21.10;99.90
19868;DHT22;10096;51.112;6.776;2022-07-10T11:54:17;20.90;99.90
19868;DHT22;10096;51.112;6.776;2022-07-10T11:56:47;21.10;99.90
19868;DHT22;10096;51.112;6.776;2022-07-10T11:59:17;21.20;99.90
19868;DHT22;10096;51.112;6.776;2022-07-10T12:01:46;21.40;99.90
19868;DHT22;10096;51.112;6.776;2022-07-10T12:04:16;21.80;99.90
19868;DHT22;10096;51.112;6.776;2022-07-10T12:06:44;22.00;99.90
19868;DHT22;10096;51.112;6.776;2022-07-10T12:09:21;22.40;99.90
19868;DHT22;10096;51.112;6.776;2022-07-10T12:11:58;22.60;99.90
19868;DHT22;10096;51.112;6.776;2022-07-10T12:14:26;22.50;99.90
19868;DHT22;10096;51.112;6.776;2022-07-10T12:16:55;22.20;99.90
19868;DHT22;10096;51.112;6.776;2022-07-10T12:19:25;22.30;99.90
19868;DHT22;10096;51.112;6.776;2022-07-10T12:21:54;22.00;99.90
19868;DHT22;10096;51.112;6.776;2022-07-10T12:24:21;22.00;99.90
19868;DHT22;10096;51.112;6.776;2022-07-10T12:26:49;21.70;99.90
19868;DHT22;10096;51.112;6.776;2022-07-10T12:29:22;21.60;99.90
19868;DHT22;10096;51.112;6.776;2022-07-10T12:31:51;21.60;99.90
19868;DHT22;10096;51.112;6.776;2022-07-10T12:34:19;21.70;99.90
19868;DHT22;10096;51.112;6.776;2022-07-10T12:36:49;21.70;99.90
19868;DHT22;10096;51.112;6.776;2022-07-10T12:39:19;21.40;99.90
19868;DHT22;10096;51.112;6.776;2022-07-10T12:41:56;21.20;99.90
19868;DHT22;10096;51.112;6.776;2022-07-10T12:44:39;21.20;99.90
19868;DHT22;10096;51.112;6.776;2022-07-10T12:47:08;21.40;99.90
19868;DHT22;10096;51.112;6.776;2022-07-10T12:49:57;21.70;99.90
19868;DHT22;10096;51.112;6.776;2022-07-10T12:52:27;21.80;99.90
19868;DHT22;10096;51.112;6.776;2022-07-10T12:55:10;21.80;99.90
19868;DHT22;10096;51.112;6.776;2022-07-10T12:57:46;22.00;99.90
19868;DHT22;10096;51.112;6.776;2022-07-10T13:00:15;22.00;99.90
19868;DHT22;10096;51.112;6.776;2022-07-10T13:02:44;22.10;99.90
19868;DHT22;10096;51.112;6.776;2022-07-10T13:05:25;22.10;99.90
19868;DHT22;10096;51.112;6.776;2022-07-10T13:08:04;22.20;99.90
19868;DHT22;10096;51.112;6.776;2022-07-10T13:10:32;22.10;99.90
19868;DHT22;10096;51.112;6.776;2022-07-10T13:12:59;22.00;99.90
19868;DHT22;10096;51.112;6.776;2022-07-10T13:15:26;21.90;99.90
19868;DHT22;10096;51.112;6.776;2022-07-10T13:17:53;21.70;99.90
19868;DHT22;10096;51.112;6.776;2022-07-10T13:20:20;21.80;99.90
19868;DHT22;10096;51.112;6.776;2022-07-10T13:22:47;22.00;99.90
19868;DHT22;10096;51.112;6.776;2022-07-10T13:25:16;22.60;99.90
19868;DHT22;10096;51.112;6.776;2022-07-10T13:27:43;23.00;99.90
19868;DHT22;10096;51.112;6.776;2022-07-10T13:30:10;23.40;99.90
19868;DHT22;10096;51.112;6.776;2022-07-10T13:32:37;23.50;99.90
19868;DHT22;10096;51.112;6.776;2022-07-10T13:35:07;23.50;99.90
19868;DHT22;10096;51.112;6.776;2022-07-10T13:37:34;23.40;99.90
19868;DHT22;10096;51.112;6.776;2022-07-10T13:40:08;23.70;99.90
19868;DHT22;10096;51.112;6.776;2022-07-10T13:42:36;23.90;99.90
19868;DHT22;10096;51.112;6.776;2022-07-10T13:45:04;24.30;99.90
19868;DHT22;10096;51.112;6.776;2022-07-10T13:47:33;24.30;99.90
19868;DHT22;10096;51.112;6.776;2022-07-10T13:50:01;24.40;99.90
19868;DHT22;10096;51.112;6.776;2022-07-10T13:52:27;24.50;99.90
19868;DHT22;10096;51.112;6.776;2022-07-10T13:54:54;24.80;99.90
19868;DHT22;10096;51.112;6.776;2022-07-10T13:57:21;24.40;99.90
19868;DHT22;10096;51.112;6.776;2022-07-10T13:59:52;24.70;99.90
19868;DHT22;10096;51.112;6.776;2022-07-10T14:02:19;24.60;99.90
19868;DHT22;10096;51.112;6.776;2022-07-10T14:04:46;24.30;99.90
19868;DHT22;10096;51.112;6.776;2022-07-10T14:07:13;24.00;99.90
19868;DHT22;10096;51.112;6.776;2022-07-10T14:09:40;23.80;99.90
19868;DHT22;10096;51.112;6.776;2022-07-10T14:12:08;24.00;99.90
19868;DHT22;10096;51.112;6.776;2022-07-10T14:14:35;24.10;99.90
19868;DHT22;10096;51.112;6.776;2022-07-10T14:17:06;23.70;99.90
19868;DHT22;10096;51.112;6.776;2022-07-10T14:19:33;23.90;99.90
19868;DHT22;10096;51.112;6.776;2022-07-10T14:22:00;23.70;99.90
19868;DHT22;10096;51.112;6.776;2022-07-10T14:24:27;23.90;99.90
19868;DHT22;10096;51.112;6.776;2022-07-10T14:26:55;23.90;99.90
19868;DHT22;10096;51.112;6.776;2022-07-10T14:29:21;23.80;99.90
19868;DHT22;10096;51.112;6.776;2022-07-10T14:31:50;23.70;99.90
19868;DHT22;10096;51.112;6.776;2022-07-10T14:34:19;23.70;99.90
19868;DHT22;10096;51.112;6.776;2022-07-10T14:36:56;23.70;99.90
19868;DHT22;10096;51.112;6.776;2022-07-10T14:39:24;23.80;99.90
19868;DHT22;10096;51.112;6.776;2022-07-10T14:41:51;23.50;99.90
19868;DHT22;10096;51.112;6.776;2022-07-10T14:44:18;23.60;99.90
19868;DHT22;10096;51.112;6.776;2022-07-10T14:46:45;23.50;99.90
19868;DHT22;10096;51.112;6.776;2022-07-10T14:49:12;23.40;99.90
19868;DHT22;10096;51.112;6.776;2022-07-10T14:51:41;23.50;99.90
19868;DHT22;10096;51.112;6.776;2022-07-10T14:54:08;23.00;99.90
19868;DHT22;10096;51.112;6.776;2022-07-10T14:56:36;22.80;99.90
19868;DHT22;10096;51.112;6.776;2022-07-10T14:59:03;22.60;99.90
19868;DHT22;10096;51.112;6.776;2022-07-10T15:01:29;22.50;99.90
19868;DHT22;10096;51.112;6.776;2022-07-10T15:03:56;22.50;99.90
19868;DHT22;10096;51.112;6.776;2022-07-10T15:06:24;22.20;99.90
19868;DHT22;10096;51.112;6.776;2022-07-10T15:08:52;22.20;99.90
19868;DHT22;10096;51.112;6.776;2022-07-10T15:11:19;22.40;99.90
19868;DHT22;10096;51.112;6.776;2022-07-10T15:13:48;22.70;99.90
19868;DHT22;10096;51.112;6.776;2022-07-10T15:16:16;22.70;99.90
19868;DHT22;10096;51.112;6.776;2022-07-10T15:18:43;22.40;99.90
19868;DHT22;10096;51.112;6.776;2022-07-10T15:21:11;22.50;99.90
19868;DHT22;10096;51.112;6.776;2022-07-10T15:23:38;22.60;99.90
19868;DHT22;10096;51.112;6.776;2022-07-10T15:26:07;22.70;99.90
19868;DHT22;10096;51.112;6.776;2022-07-10T15:28:34;22.80;99.90
19868;DHT22;10096;51.112;6.776;2022-07-10T15:31:00;22.80;99.90
19868;DHT22;10096;51.112;6.776;2022-07-10T15:33:31;22.70;99.90
19868;DHT22;10096;51.112;6.776;2022-07-10T15:35:58;22.80;99.90
19868;DHT22;10096;51.112;6.776;2022-07-10T15:38:25;22.90;99.90
19868;DHT22;10096;51.112;6.776;2022-07-10T15:40:52;22.60;99.90
19868;DHT22;10096;51.112;6.776;2022-07-10T15:43:20;22.60;99.90
19868;DHT22;10096;51.112;6.776;2022-07-10T15:45:47;22.70;99.90